Upper Saint Regis, New York
Current Conditions -  °F | °C
As of 10:51 PM on Tuesday 27 Jan 2015 (Local Time) from KSLK Reporting Station
Overcast Overcast  
Wind Chill: -20°   Ceiling: 6000
Heat Index: -15°   Visibility: 8mi
Dew Point: -19°   Wind: 5mph
Humidity: 73%   Direction: 320°NW
Pressure: 29.83"   Gusts: NA
Location:  44.3663°N, 74.2493°W
Report Text: KSLK 280351Z AUTO 32004KT 8SM SCT046 BKN060 OVC070 M15/M19 A2983 RMK AO2 SLP141 T11501189
Loading
Personal Weather Stations






























Interactive Weather Map New forecast layout! Learn more

10-Day Weather Forecast

Advertisements
Track Severe Weather on mobile